Webcam Meteoipassi more information Webcam Meteoipassi


Pisa torre orologio more information Pisa torre orologio


altri nostri siti meteo:

Pomeziameteo 1Sito sul meteo

Pomeziameteo DashboardSito sul meteo

Caput FrigorisSito sul meteo

BarcellonameteoSito sul meteo

MeteoipassiSito sul meteo

ViterbometeoSito sul meteo

MeteotortoretoSito sul meteo

TortoretometeolidoSito sul meteo

MeteoGonzagaSito sul meteo



Problemi di comunicazione, Vai direttamente al sito di Meteoalarm : www.meteoalarm.eu e controlla gli allarmi .

Report METAR

   
LIRQ - Firenze
Dati ricevuti: Feb 23 2019 1:20 am
Sereno  
Sereno  
   Vento: Variabile 1.9 km/h
Vento: Variabile 1.9 km/h
Temperatura: 5°C
P.to Rugiada: 4°C
Umidita: 93%
Barometro: 1026 hPa
Visibilita: oltre 10 km
dettagli cloud: Sereno
LIRQ 230020Z VRB01KT CAVOK 05/04 Q1026
LIRP - Lucca
Dati ricevuti: Feb 23 2019 1:15 am
Shallow Fog, Poche nuvole  
Shallow Fog, Poche nuvole  
   Vento: SE 7.4 km/h
Vento: SE 7.4 km/h
Temperatura: 4°C
Temperatura Vento: 2°C
P.to Rugiada: 4°C
Umidita: 100%
Barometro: 1025 hPa
Nuvole: Poche nuvole
Visibilita: 3 km
dettagli cloud: Poche nuvole 182.9 m
LIRP 230015Z 11004KT 2500 MIFG FEW006 04/04 Q1025 NOSIG
LIRP - Livorno
Dati ricevuti: Feb 23 2019 1:15 am
Shallow Fog, Poche nuvole  
Shallow Fog, Poche nuvole  
   Vento: SE 7.4 km/h
Vento: SE 7.4 km/h
Temperatura: 4°C
Temperatura Vento: 2°C
P.to Rugiada: 4°C
Umidita: 100%
Barometro: 1025 hPa
Nuvole: Poche nuvole
Visibilita: 3 km
dettagli cloud: Poche nuvole 182.9 m
LIRP 230015Z 11004KT 2500 MIFG FEW006 04/04 Q1025 NOSIG
LIMP - Parma
Dati ricevuti: Feb 22 2019 8:50 pm
DATI Obsoleti
Sereno  
Sereno  
   Vento: SE 5.6 km/h
Vento: SE 5.6 km/h
Temperatura: 10°C
Temperatura Vento: 9°C
P.to Rugiada: 5°C
Umidita: 71%
Barometro: 1025 hPa
Visibilita: oltre 10 km
dettagli cloud: Sereno
LIMP 221950Z 13003KT CAVOK 10/05 Q1025
LIRF - Roma
Dati ricevuti: Feb 23 2019 1:20 am
Sereno  
Sereno  
   Vento: NO 11.1 km/h
Vento: NO 11.1 km/h
Temperatura: 9°C
Temperatura Vento: 7°C
P.to Rugiada: 2°C
Umidita: 62%
Barometro: 1023 hPa
Visibilita: oltre 10 km
dettagli cloud: Sereno
LIRF 230020Z 31006KT CAVOK 09/02 Q1023 NOSIG
 

Script sviluppato da  Saratoga-weather.org Adattato per il modello da  Weerstation Leuven

Potete trovare le nostre info meteo anche a:

European Weather Network

Weather Underground

AWEKAS

HAMweather, WeatherForYou, PWS Weather

Strumentazione usata:

Stazione meteo
Oregon Scientific WMR88

Programma gestore dati meteo
WVIEW

Server per i dati meteo
WDS-5

Provider
Anemos WDS-5

Oregon Scientific WMR88

WVIEW

WDS-5

Anemos WDS-5